createdAt,value
2017-12-24T00:00:00.198Z,1009.49
2017-12-24T00:01:00.194Z,1009.49
2017-12-24T00:02:00.193Z,1009.48
2017-12-24T00:03:00.283Z,1009.46
2017-12-24T00:04:00.208Z,1009.50
2017-12-24T00:05:00.180Z,1009.52
2017-12-24T00:06:00.177Z,1009.47
2017-12-24T00:07:00.173Z,1009.48
2017-12-24T00:08:00.170Z,1009.47
2017-12-24T00:09:00.178Z,1009.46
2017-12-24T00:10:00.164Z,1009.45
2017-12-24T00:11:00.161Z,1009.43
2017-12-24T00:12:00.163Z,1009.38
2017-12-24T00:13:00.166Z,1009.35
2017-12-24T00:14:00.148Z,1009.37
2017-12-24T00:15:00.147Z,1009.31
2017-12-24T00:16:00.144Z,1009.36
2017-12-24T00:17:00.138Z,1009.31
2017-12-24T00:18:00.204Z,1009.31
2017-12-24T00:19:00.136Z,1009.30
2017-12-24T00:20:00.127Z,1009.34
2017-12-24T00:21:00.126Z,1009.31
2017-12-24T00:22:00.123Z,1009.34
2017-12-24T00:23:00.117Z,1009.30
2017-12-24T00:24:00.113Z,1009.31
2017-12-24T00:25:00.111Z,1009.32
2017-12-24T00:26:00.108Z,1009.35
2017-12-24T00:27:00.102Z,1009.37
2017-12-24T00:28:00.101Z,1009.36
2017-12-24T00:29:00.100Z,1009.31
2017-12-24T00:30:00.099Z,1009.32
2017-12-24T00:31:00.116Z,1009.32
2017-12-24T00:32:00.086Z,1009.28
2017-12-24T00:33:00.092Z,1009.28
2017-12-24T00:34:00.080Z,1009.29
2017-12-24T00:35:00.077Z,1009.30
2017-12-24T00:36:00.074Z,1009.29
2017-12-24T00:37:00.070Z,1009.31
2017-12-24T00:38:00.070Z,1009.32
2017-12-24T00:39:00.081Z,1009.33
2017-12-24T00:40:00.063Z,1009.32
2017-12-24T00:41:00.063Z,1009.31
2017-12-24T00:42:00.052Z,1009.33
2017-12-24T00:43:00.073Z,1009.35
2017-12-24T00:44:00.045Z,1009.36
2017-12-24T00:45:00.046Z,1009.39
2017-12-24T00:46:00.040Z,1009.43
2017-12-24T00:47:00.037Z,1009.42
2017-12-24T00:48:00.033Z,1009.43
2017-12-24T00:49:00.029Z,1009.44
2017-12-24T00:50:00.039Z,1009.42
2017-12-24T00:51:00.022Z,1009.41
2017-12-24T00:52:00.020Z,1009.38
2017-12-24T00:53:00.018Z,1009.38
2017-12-24T00:54:00.012Z,1009.42
2017-12-24T00:55:00.012Z,1009.40
2017-12-24T00:56:00.008Z,1009.40
2017-12-24T00:57:00.067Z,1009.40
2017-12-24T00:57:59.998Z,1009.39
2017-12-24T00:59:00.009Z,1009.31
2017-12-24T00:59:59.991Z,1009.28
2017-12-24T01:00:59.990Z,1009.21
2017-12-24T01:01:59.986Z,1009.15
2017-12-24T01:02:59.982Z,1009.15
2017-12-24T01:04:00.007Z,1009.10
2017-12-24T01:05:00.004Z,1009.08
2017-12-24T01:05:59.972Z,1009.06
2017-12-24T01:06:59.988Z,1009.04
2017-12-24T01:07:59.971Z,1009.12
2017-12-24T01:08:59.966Z,1009.12
2017-12-24T01:09:59.964Z,1009.11
2017-12-24T01:10:59.958Z,1009.18
2017-12-24T01:11:59.952Z,1009.19
2017-12-24T01:12:59.977Z,1009.20
2017-12-24T01:13:59.946Z,1009.24
2017-12-24T01:14:59.943Z,1009.22
2017-12-24T01:15:59.938Z,1009.30
2017-12-24T01:16:59.936Z,1009.30
2017-12-24T01:17:59.933Z,1009.28
2017-12-24T01:18:59.928Z,1009.25
2017-12-24T01:19:59.926Z,1009.29
2017-12-24T01:20:59.923Z,1009.28
2017-12-24T01:21:59.918Z,1009.28
2017-12-24T01:22:59.912Z,1009.30
2017-12-24T01:23:59.911Z,1009.31
2017-12-24T01:24:59.905Z,1009.32
2017-12-24T01:25:59.908Z,1009.34
2017-12-24T01:26:59.904Z,1009.32
2017-12-24T01:27:59.900Z,1009.34
2017-12-24T01:28:59.893Z,1009.36
2017-12-24T01:29:59.890Z,1009.32
2017-12-24T01:30:59.885Z,1009.29
2017-12-24T01:31:59.882Z,1009.33
2017-12-24T01:32:59.881Z,1009.33
2017-12-24T01:33:59.874Z,1009.35
2017-12-24T01:34:59.870Z,1009.33
2017-12-24T01:35:59.868Z,1009.31
2017-12-24T01:36:59.865Z,1009.31
2017-12-24T01:37:59.860Z,1009.29
2017-12-24T01:39:00.035Z,1009.23
2017-12-24T01:39:59.853Z,1009.22
2017-12-24T01:40:59.851Z,1009.21
2017-12-24T01:41:59.846Z,1009.22
2017-12-24T01:42:59.841Z,1009.25
2017-12-24T01:43:59.841Z,1009.23
2017-12-24T01:44:59.837Z,1009.22
2017-12-24T01:45:59.832Z,1009.21
2017-12-24T01:46:59.828Z,1009.24
2017-12-24T01:47:59.827Z,1009.24
2017-12-24T01:48:59.895Z,1009.16
2017-12-24T01:49:59.817Z,1009.16
2017-12-24T01:50:59.816Z,1009.15
2017-12-24T01:51:59.810Z,1009.14
2017-12-24T01:52:59.809Z,1009.13
2017-12-24T01:53:59.811Z,1009.15
2017-12-24T01:54:59.802Z,1009.15
2017-12-24T01:55:59.797Z,1009.11
2017-12-24T01:56:59.796Z,1009.07
2017-12-24T01:57:59.801Z,1009.10
2017-12-24T01:58:59.787Z,1009.11
2017-12-24T01:59:59.786Z,1009.12
2017-12-24T02:00:59.779Z,1009.15
2017-12-24T02:01:59.779Z,1009.11
2017-12-24T02:02:59.773Z,1009.06
2017-12-24T02:03:59.769Z,1009.08
2017-12-24T02:04:59.764Z,1009.06
2017-12-24T02:06:00.439Z,1009.11
2017-12-24T02:06:59.762Z,1009.09
2017-12-24T02:07:59.894Z,1009.05
2017-12-24T02:09:00.466Z,1009.07
2017-12-24T02:09:59.828Z,1009.09
2017-12-24T02:10:59.902Z,1009.02
2017-12-24T02:12:00.412Z,1008.99
2017-12-24T02:13:00.411Z,1009.00
2017-12-24T02:13:59.729Z,1009.02
2017-12-24T02:14:59.727Z,1009.06
2017-12-24T02:15:59.726Z,1009.09
2017-12-24T02:16:59.719Z,1009.05
2017-12-24T02:17:59.713Z,1009.09
2017-12-24T02:18:59.711Z,1009.12
2017-12-24T02:19:59.705Z,1009.06
2017-12-24T02:20:59.713Z,1009.09
2017-12-24T02:21:59.698Z,1009.11
2017-12-24T02:22:59.696Z,1009.15
2017-12-24T02:23:59.703Z,1009.20
2017-12-24T02:24:59.686Z,1009.15
2017-12-24T02:25:59.750Z,1009.18
2017-12-24T02:26:59.683Z,1009.18
2017-12-24T02:27:59.680Z,1009.16
2017-12-24T02:28:59.673Z,1009.20
2017-12-24T02:29:59.673Z,1009.20
2017-12-24T02:30:59.664Z,1009.18
2017-12-24T02:31:59.660Z,1009.23
2017-12-24T02:32:59.658Z,1009.23
2017-12-24T02:33:59.652Z,1009.27
2017-12-24T02:34:59.648Z,1009.29
2017-12-24T02:35:59.645Z,1009.29
2017-12-24T02:36:59.648Z,1009.31
2017-12-24T02:37:59.637Z,1009.36
2017-12-24T02:38:59.643Z,1009.33
2017-12-24T02:39:59.631Z,1009.33
2017-12-24T02:40:59.626Z,1009.30
2017-12-24T02:41:59.676Z,1009.31
2017-12-24T02:42:59.620Z,1009.30
2017-12-24T02:43:59.616Z,1009.30
2017-12-24T02:44:59.610Z,1009.28
2017-12-24T02:45:59.607Z,1009.29
2017-12-24T02:46:59.604Z,1009.24
2017-12-24T02:47:59.610Z,1009.19
2017-12-24T02:48:59.598Z,1009.18
2017-12-24T02:49:59.591Z,1009.10
2017-12-24T02:50:59.588Z,1009.07
2017-12-24T02:51:59.587Z,1009.05
2017-12-24T02:52:59.588Z,1009.05
2017-12-24T02:53:59.578Z,1009.03
2017-12-24T02:54:59.576Z,1009.00
2017-12-24T02:55:59.574Z,1009.00
2017-12-24T02:56:59.567Z,1008.95
2017-12-24T02:57:59.561Z,1008.94
2017-12-24T02:58:59.557Z,1008.93
2017-12-24T02:59:59.554Z,1008.92
2017-12-24T03:00:59.550Z,1008.87
2017-12-24T03:01:59.546Z,1008.82
2017-12-24T03:02:59.542Z,1008.83
2017-12-24T03:03:59.537Z,1008.83
2017-12-24T03:04:59.534Z,1008.88
2017-12-24T03:05:59.530Z,1008.84
2017-12-24T03:06:59.525Z,1008.91
2017-12-24T03:07:59.521Z,1008.89
2017-12-24T03:08:59.517Z,1008.90
2017-12-24T03:09:59.513Z,1008.92
2017-12-24T03:10:59.507Z,1008.92
2017-12-24T03:11:59.504Z,1008.91
2017-12-24T03:12:59.502Z,1008.90
2017-12-24T03:13:59.497Z,1008.89
2017-12-24T03:14:59.493Z,1008.89
2017-12-24T03:15:59.493Z,1008.89
2017-12-24T03:16:59.485Z,1008.95
2017-12-24T03:17:59.479Z,1008.89
2017-12-24T03:18:59.474Z,1008.91
2017-12-24T03:19:59.469Z,1008.91
2017-12-24T03:20:59.466Z,1008.91
2017-12-24T03:21:59.460Z,1008.94
2017-12-24T03:22:59.456Z,1008.96
2017-12-24T03:23:59.455Z,1008.93
2017-12-24T03:24:59.452Z,1008.92
2017-12-24T03:25:59.444Z,1008.94
2017-12-24T03:26:59.439Z,1008.92
2017-12-24T03:27:59.439Z,1008.86
2017-12-24T03:28:59.431Z,1008.83
2017-12-24T03:29:59.427Z,1008.81
2017-12-24T03:30:59.423Z,1008.84
2017-12-24T03:31:59.420Z,1008.82
2017-12-24T03:32:59.414Z,1008.82
2017-12-24T03:33:59.411Z,1008.82
2017-12-24T03:34:59.405Z,1008.85
2017-12-24T03:35:59.404Z,1008.86
2017-12-24T03:36:59.396Z,1008.84
2017-12-24T03:37:59.392Z,1008.88
2017-12-24T03:38:59.390Z,1008.89
2017-12-24T03:39:59.387Z,1008.86
2017-12-24T03:40:59.383Z,1008.79
2017-12-24T03:41:59.375Z,1008.80
2017-12-24T03:42:59.374Z,1008.79
2017-12-24T03:43:59.368Z,1008.77
2017-12-24T03:44:59.366Z,1008.78
2017-12-24T03:45:59.359Z,1008.77
2017-12-24T03:46:59.356Z,1008.77
2017-12-24T03:47:59.356Z,1008.72
2017-12-24T03:48:59.348Z,1008.73
2017-12-24T03:49:59.341Z,1008.70
2017-12-24T03:50:59.343Z,1008.65
2017-12-24T03:51:59.333Z,1008.67
2017-12-24T03:52:59.330Z,1008.68
2017-12-24T03:53:59.327Z,1008.70
2017-12-24T03:54:59.322Z,1008.66
2017-12-24T03:55:59.318Z,1008.70
2017-12-24T03:56:59.315Z,1008.64
2017-12-24T03:57:59.309Z,1008.64
2017-12-24T03:58:59.305Z,1008.63
2017-12-24T03:59:59.300Z,1008.65
2017-12-24T04:00:59.298Z,1008.64
2017-12-24T04:01:59.295Z,1008.59
2017-12-24T04:02:59.288Z,1008.62
2017-12-24T04:03:59.285Z,1008.64
2017-12-24T04:04:59.281Z,1008.60
2017-12-24T04:05:59.275Z,1008.62
2017-12-24T04:06:59.271Z,1008.62
2017-12-24T04:07:59.272Z,1008.59
2017-12-24T04:08:59.264Z,1008.56
2017-12-24T04:09:59.258Z,1008.47
2017-12-24T04:10:59.255Z,1008.48
2017-12-24T04:11:59.253Z,1008.48
2017-12-24T04:12:59.247Z,1008.48
2017-12-24T04:13:59.244Z,1008.48
2017-12-24T04:14:59.238Z,1008.52
2017-12-24T04:15:59.235Z,1008.52
2017-12-24T04:16:59.230Z,1008.50
2017-12-24T04:17:59.226Z,1008.51
2017-12-24T04:18:59.223Z,1008.48
2017-12-24T04:19:59.219Z,1008.49
2017-12-24T04:20:59.215Z,1008.47
2017-12-24T04:21:59.210Z,1008.50
2017-12-24T04:22:59.207Z,1008.51
2017-12-24T04:23:59.202Z,1008.52
2017-12-24T04:24:59.201Z,1008.53
2017-12-24T04:25:59.192Z,1008.50
2017-12-24T04:26:59.191Z,1008.51
2017-12-24T04:27:59.185Z,1008.49
2017-12-24T04:28:59.182Z,1008.47
2017-12-24T04:29:59.176Z,1008.50
2017-12-24T04:30:59.174Z,1008.52
2017-12-24T04:31:59.169Z,1008.47
2017-12-24T04:32:59.167Z,1008.49
2017-12-24T04:33:59.161Z,1008.48
2017-12-24T04:34:59.155Z,1008.47
2017-12-24T04:35:59.152Z,1008.49
2017-12-24T04:36:59.155Z,1008.51
2017-12-24T04:37:59.145Z,1008.53
2017-12-24T04:38:59.143Z,1008.49
2017-12-24T04:39:59.138Z,1008.44
2017-12-24T04:40:59.132Z,1008.43
2017-12-24T04:41:59.132Z,1008.44
2017-12-24T04:42:59.125Z,1008.45
2017-12-24T04:43:59.120Z,1008.41
2017-12-24T04:44:59.118Z,1008.43
2017-12-24T04:45:59.113Z,1008.39
2017-12-24T04:46:59.111Z,1008.36
2017-12-24T04:47:59.106Z,1008.37
2017-12-24T04:48:59.103Z,1008.33
2017-12-24T04:49:59.098Z,1008.32
2017-12-24T04:50:59.094Z,1008.31
2017-12-24T04:51:59.090Z,1008.30
2017-12-24T04:52:59.089Z,1008.27
2017-12-24T04:53:59.085Z,1008.23
2017-12-24T04:54:59.078Z,1008.25
2017-12-24T04:55:59.073Z,1008.17
2017-12-24T04:56:59.072Z,1008.13
2017-12-24T04:57:59.067Z,1008.08
2017-12-24T04:58:59.063Z,1008.06
2017-12-24T04:59:59.063Z,1008.07
2017-12-24T05:00:59.056Z,1008.07
2017-12-24T05:01:59.050Z,1008.09
2017-12-24T05:02:59.050Z,1008.07
2017-12-24T05:03:59.042Z,1008.11
2017-12-24T05:04:59.040Z,1008.08
2017-12-24T05:05:59.037Z,1008.07
2017-12-24T05:06:59.032Z,1008.11
2017-12-24T05:07:59.030Z,1008.06
2017-12-24T05:08:59.026Z,1008.00
2017-12-24T05:09:59.020Z,1008.02
2017-12-24T05:10:59.031Z,1008.01
2017-12-24T05:11:59.013Z,1008.03
2017-12-24T05:12:59.007Z,1007.97
2017-12-24T05:13:59.005Z,1008.00
2017-12-24T05:14:59.001Z,1008.02
2017-12-24T05:15:59.001Z,1007.96
2017-12-24T05:16:58.992Z,1007.97
2017-12-24T05:17:58.986Z,1007.94
2017-12-24T05:18:58.986Z,1007.87
2017-12-24T05:19:58.980Z,1007.88
2017-12-24T05:20:58.978Z,1007.82
2017-12-24T05:21:58.974Z,1007.91
2017-12-24T05:22:58.969Z,1007.83
2017-12-24T05:23:58.969Z,1007.85
2017-12-24T05:24:58.964Z,1007.86
2017-12-24T05:25:58.957Z,1007.85
2017-12-24T05:26:58.978Z,1007.81
2017-12-24T05:27:58.951Z,1007.82
2017-12-24T05:28:58.950Z,1007.81
2017-12-24T05:29:58.945Z,1007.79
2017-12-24T05:30:58.942Z,1007.77
2017-12-24T05:31:58.938Z,1007.75
2017-12-24T05:32:58.933Z,1007.73
2017-12-24T05:33:58.929Z,1007.77
2017-12-24T05:34:58.929Z,1007.78
2017-12-24T05:35:58.923Z,1007.75
2017-12-24T05:36:58.920Z,1007.76
2017-12-24T05:37:58.916Z,1007.77
2017-12-24T05:38:58.919Z,1007.75
2017-12-24T05:39:58.909Z,1007.68
2017-12-24T05:40:58.906Z,1007.70
2017-12-24T05:41:58.900Z,1007.66
2017-12-24T05:42:58.906Z,1007.65
2017-12-24T05:43:58.892Z,1007.66
2017-12-24T05:44:58.895Z,1007.62
2017-12-24T05:45:58.888Z,1007.65
2017-12-24T05:46:58.883Z,1007.58
2017-12-24T05:47:58.879Z,1007.61
2017-12-24T05:48:58.876Z,1007.58
2017-12-24T05:49:58.872Z,1007.61
2017-12-24T05:50:58.872Z,1007.57
2017-12-24T05:51:58.864Z,1007.62
2017-12-24T05:52:58.861Z,1007.56
2017-12-24T05:53:58.858Z,1007.57
2017-12-24T05:54:58.861Z,1007.54
2017-12-24T05:55:58.849Z,1007.51
2017-12-24T05:56:58.846Z,1007.45
2017-12-24T05:57:58.843Z,1007.50
2017-12-24T05:58:58.837Z,1007.49
2017-12-24T05:59:58.832Z,1007.45
2017-12-24T06:00:58.830Z,1007.44
2017-12-24T06:01:58.825Z,1007.48
2017-12-24T06:02:58.823Z,1007.43
2017-12-24T06:03:58.818Z,1007.46
2017-12-24T06:04:58.815Z,1007.47
2017-12-24T06:05:58.808Z,1007.47
2017-12-24T06:06:58.807Z,1007.42
2017-12-24T06:07:58.803Z,1007.35
2017-12-24T06:08:58.801Z,1007.40
2017-12-24T06:09:58.796Z,1007.41
2017-12-24T06:10:58.795Z,1007.33
2017-12-24T06:11:58.789Z,1007.35
2017-12-24T06:12:58.786Z,1007.41
2017-12-24T06:13:58.782Z,1007.39
2017-12-24T06:14:58.778Z,1007.32
2017-12-24T06:15:58.775Z,1007.31
2017-12-24T06:16:58.770Z,1007.35
2017-12-24T06:17:58.768Z,1007.34
2017-12-24T06:18:58.763Z,1007.35
2017-12-24T06:19:58.767Z,1007.37
2017-12-24T06:20:58.756Z,1007.38
2017-12-24T06:21:58.751Z,1007.34
2017-12-24T06:22:58.746Z,1007.39
2017-12-24T06:23:58.745Z,1007.36
2017-12-24T06:24:58.740Z,1007.32
2017-12-24T06:25:58.735Z,1007.34
2017-12-24T06:26:58.734Z,1007.31
2017-12-24T06:27:58.730Z,1007.31
2017-12-24T06:28:58.727Z,1007.33
2017-12-24T06:29:58.722Z,1007.35
2017-12-24T06:30:58.718Z,1007.32
2017-12-24T06:31:58.713Z,1007.36
2017-12-24T06:32:58.713Z,1007.28
2017-12-24T06:33:58.709Z,1007.24
2017-12-24T06:34:58.714Z,1007.25
2017-12-24T06:35:58.700Z,1007.25
2017-12-24T06:36:58.697Z,1007.28
2017-12-24T06:37:58.692Z,1007.17
2017-12-24T06:38:58.691Z,1007.23
2017-12-24T06:39:58.686Z,1007.24
2017-12-24T06:40:58.680Z,1007.22
2017-12-24T06:41:58.679Z,1007.18
2017-12-24T06:42:58.673Z,1007.22
2017-12-24T06:43:58.669Z,1007.14
2017-12-24T06:44:58.667Z,1007.21
2017-12-24T06:45:58.663Z,1007.17
2017-12-24T06:46:58.658Z,1007.20
2017-12-24T06:47:58.655Z,1007.18
2017-12-24T06:48:58.649Z,1007.13
2017-12-24T06:49:58.648Z,1007.22
2017-12-24T06:50:58.644Z,1007.16
2017-12-24T06:51:58.641Z,1007.16
2017-12-24T06:52:58.636Z,1007.18
2017-12-24T06:53:58.633Z,1007.17
2017-12-24T06:54:58.629Z,1007.17
2017-12-24T06:55:58.628Z,1007.19
2017-12-24T06:56:58.622Z,1007.20
2017-12-24T06:57:58.617Z,1007.23
2017-12-24T06:58:58.617Z,1007.27
2017-12-24T06:59:58.609Z,1007.25
2017-12-24T07:00:58.605Z,1007.29
2017-12-24T07:01:58.603Z,1007.27
2017-12-24T07:02:58.598Z,1007.30
2017-12-24T07:03:58.599Z,1007.29
2017-12-24T07:04:58.594Z,1007.29
2017-12-24T07:05:58.592Z,1007.33
2017-12-24T07:06:58.586Z,1007.32
2017-12-24T07:07:58.583Z,1007.32
2017-12-24T07:08:58.583Z,1007.32
2017-12-24T07:09:58.575Z,1007.38
2017-12-24T07:10:58.572Z,1007.39
2017-12-24T07:11:58.568Z,1007.40
2017-12-24T07:12:58.569Z,1007.41
2017-12-24T07:13:58.560Z,1007.43
2017-12-24T07:14:58.560Z,1007.41
2017-12-24T07:15:58.557Z,1007.44
2017-12-24T07:16:58.553Z,1007.46
2017-12-24T07:17:58.570Z,1007.46
2017-12-24T07:18:58.610Z,1007.49
2017-12-24T07:19:58.548Z,1007.46
2017-12-24T07:20:58.538Z,1007.48
2017-12-24T07:21:58.551Z,1007.46
2017-12-24T07:22:58.531Z,1007.47
2017-12-24T07:23:58.537Z,1007.50
2017-12-24T07:24:58.527Z,1007.50
2017-12-24T07:25:58.522Z,1007.50
2017-12-24T07:26:58.521Z,1007.48
2017-12-24T07:27:58.517Z,1007.48
2017-12-24T07:28:58.517Z,1007.50
2017-12-24T07:29:58.510Z,1007.47
2017-12-24T07:30:58.508Z,1007.49
2017-12-24T07:31:58.504Z,1007.49
2017-12-24T07:32:58.506Z,1007.49
2017-12-24T07:33:58.500Z,1007.48
2017-12-24T07:34:58.494Z,1007.45
2017-12-24T07:35:58.492Z,1007.46
2017-12-24T07:36:58.491Z,1007.45
2017-12-24T07:37:58.485Z,1007.43
2017-12-24T07:38:58.483Z,1007.41
2017-12-24T07:39:58.482Z,1007.43
2017-12-24T07:40:58.505Z,1007.45
2017-12-24T07:41:58.475Z,1007.47
2017-12-24T07:42:58.469Z,1007.44
2017-12-24T07:43:58.469Z,1007.47
2017-12-24T07:44:58.464Z,1007.54
2017-12-24T07:45:58.461Z,1007.54
2017-12-24T07:46:58.463Z,1007.60
2017-12-24T07:47:58.456Z,1007.60
2017-12-24T07:48:58.453Z,1007.64
2017-12-24T07:49:58.449Z,1007.60
2017-12-24T07:50:58.444Z,1007.59
2017-12-24T07:51:58.444Z,1007.63
2017-12-24T07:52:58.440Z,1007.62
2017-12-24T07:53:58.435Z,1007.66
2017-12-24T07:54:58.434Z,1007.66
2017-12-24T07:55:58.434Z,1007.62
2017-12-24T07:56:58.429Z,1007.61
2017-12-24T07:57:58.426Z,1007.62
2017-12-24T07:58:58.422Z,1007.61
2017-12-24T07:59:58.420Z,1007.57
2017-12-24T08:00:58.418Z,1007.63
2017-12-24T08:01:58.412Z,1007.62
2017-12-24T08:02:58.411Z,1007.59
2017-12-24T08:03:58.409Z,1007.64
2017-12-24T08:04:58.405Z,1007.63
2017-12-24T08:05:58.400Z,1007.62
2017-12-24T08:06:58.398Z,1007.66
2017-12-24T08:07:58.395Z,1007.62
2017-12-24T08:08:58.395Z,1007.67
2017-12-24T08:09:58.391Z,1007.65
2017-12-24T08:10:58.388Z,1007.66
2017-12-24T08:11:58.384Z,1007.70
2017-12-24T08:12:58.381Z,1007.70
2017-12-24T08:13:58.380Z,1007.71
2017-12-24T08:14:58.375Z,1007.71
2017-12-24T08:15:58.373Z,1007.73
2017-12-24T08:16:58.372Z,1007.79
2017-12-24T08:17:58.369Z,1007.72
2017-12-24T08:18:58.366Z,1007.67
2017-12-24T08:19:58.363Z,1007.72
2017-12-24T08:20:58.359Z,1007.76
2017-12-24T08:21:58.356Z,1007.72
2017-12-24T08:22:58.353Z,1007.77
2017-12-24T08:23:58.351Z,1007.80
2017-12-24T08:24:58.348Z,1007.83
2017-12-24T08:25:58.344Z,1007.83
2017-12-24T08:26:58.346Z,1007.84
2017-12-24T08:27:58.338Z,1007.85
2017-12-24T08:28:58.336Z,1007.81
2017-12-24T08:29:58.333Z,1007.92
2017-12-24T08:30:58.339Z,1007.86
2017-12-24T08:31:58.359Z,1007.87
2017-12-24T08:32:58.324Z,1007.85
2017-12-24T08:33:58.319Z,1007.87
2017-12-24T08:34:58.319Z,1007.87
2017-12-24T08:35:58.321Z,1007.85
2017-12-24T08:36:58.314Z,1007.89
2017-12-24T08:37:58.314Z,1007.88
2017-12-24T08:38:58.309Z,1007.92
2017-12-24T08:39:58.306Z,1007.89
2017-12-24T08:40:58.303Z,1007.90
2017-12-24T08:41:58.298Z,1007.84
2017-12-24T08:42:58.296Z,1007.82
2017-12-24T08:43:58.294Z,1007.87
2017-12-24T08:44:58.290Z,1007.85
2017-12-24T08:45:58.288Z,1007.83
2017-12-24T08:46:58.285Z,1007.82
2017-12-24T08:47:58.284Z,1007.93
2017-12-24T08:48:58.284Z,1007.89
2017-12-24T08:49:58.277Z,1007.95
2017-12-24T08:50:58.274Z,1007.91
2017-12-24T08:51:58.274Z,1007.93
2017-12-24T08:52:58.267Z,1007.89
2017-12-24T08:53:58.267Z,1007.91
2017-12-24T08:54:58.267Z,1007.96
2017-12-24T08:55:58.266Z,1007.91
2017-12-24T08:56:58.257Z,1007.90
2017-12-24T08:57:58.253Z,1007.98
2017-12-24T08:58:58.258Z,1008.00
2017-12-24T08:59:58.249Z,1007.97
2017-12-24T09:00:58.247Z,1008.05
2017-12-24T09:01:58.247Z,1008.02
2017-12-24T09:02:58.241Z,1008.03
2017-12-24T09:03:58.237Z,1008.02
2017-12-24T09:04:58.235Z,1007.99
2017-12-24T09:05:58.232Z,1007.98
2017-12-24T09:06:58.231Z,1007.98
2017-12-24T09:07:58.247Z,1007.98
2017-12-24T09:08:58.228Z,1007.95
2017-12-24T09:09:58.225Z,1007.95
2017-12-24T09:10:58.220Z,1007.92
2017-12-24T09:11:58.233Z,1007.89
2017-12-24T09:12:58.214Z,1007.92
2017-12-24T09:13:58.213Z,1007.90
2017-12-24T09:14:58.214Z,1007.92
2017-12-24T09:15:58.210Z,1007.92
2017-12-24T09:16:58.224Z,1007.85
2017-12-24T09:17:58.226Z,1007.92
2017-12-24T09:18:58.200Z,1007.88
2017-12-24T09:19:58.216Z,1007.90
2017-12-24T09:20:58.197Z,1007.87
2017-12-24T09:21:58.192Z,1007.85
2017-12-24T09:22:58.209Z,1007.87
2017-12-24T09:23:58.187Z,1007.85
2017-12-24T09:24:58.187Z,1007.86
2017-12-24T09:25:58.183Z,1007.87
2017-12-24T09:26:58.179Z,1007.91
2017-12-24T09:27:58.179Z,1007.92
2017-12-24T09:28:58.184Z,1007.86
2017-12-24T09:29:58.172Z,1007.84
2017-12-24T09:30:58.168Z,1007.88
2017-12-24T09:31:58.167Z,1007.93
2017-12-24T09:32:58.163Z,1007.84
2017-12-24T09:33:58.162Z,1007.88
2017-12-24T09:34:58.157Z,1007.84
2017-12-24T09:35:58.157Z,1007.82
2017-12-24T09:36:58.155Z,1007.85
2017-12-24T09:37:58.156Z,1007.88
2017-12-24T09:38:58.149Z,1007.81
2017-12-24T09:39:58.148Z,1007.82
2017-12-24T09:40:58.144Z,1007.96
2017-12-24T09:41:58.140Z,1007.86
2017-12-24T09:42:58.139Z,1007.82
2017-12-24T09:43:58.144Z,1007.75
2017-12-24T09:44:58.134Z,1007.83
2017-12-24T09:45:58.130Z,1007.80
2017-12-24T09:46:58.128Z,1007.81
2017-12-24T09:47:58.124Z,1007.84
2017-12-24T09:48:58.122Z,1007.81
2017-12-24T09:49:58.151Z,1007.80
2017-12-24T09:50:58.116Z,1007.77
2017-12-24T09:51:58.115Z,1007.73
2017-12-24T09:52:58.113Z,1007.70
2017-12-24T09:53:58.110Z,1007.75
2017-12-24T09:54:58.109Z,1007.74
2017-12-24T09:55:58.103Z,1007.72
2017-12-24T09:56:58.104Z,1007.74
2017-12-24T09:57:58.100Z,1007.74
2017-12-24T09:58:58.105Z,1007.71
2017-12-24T09:59:58.093Z,1007.71
2017-12-24T10:00:58.095Z,1007.66
2017-12-24T10:01:58.088Z,1007.60
2017-12-24T10:02:58.088Z,1007.64
2017-12-24T10:03:58.085Z,1007.66
2017-12-24T10:04:58.085Z,1007.58
2017-12-24T10:05:58.082Z,1007.64
2017-12-24T10:06:58.077Z,1007.59
2017-12-24T10:07:58.074Z,1007.60
2017-12-24T10:08:58.071Z,1007.57
2017-12-24T10:09:58.070Z,1007.60
2017-12-24T10:10:58.067Z,1007.57
2017-12-24T10:11:58.066Z,1007.51
2017-12-24T10:12:58.061Z,1007.49
2017-12-24T10:13:58.061Z,1007.49
2017-12-24T10:14:58.057Z,1007.45
2017-12-24T10:15:58.123Z,1007.42
2017-12-24T10:16:58.055Z,1007.42
2017-12-24T10:17:58.051Z,1007.46
2017-12-24T10:18:58.049Z,1007.42
2017-12-24T10:19:58.050Z,1007.37
2017-12-24T10:20:58.044Z,1007.35
2017-12-24T10:21:58.041Z,1007.40
2017-12-24T10:22:58.039Z,1007.36
2017-12-24T10:23:58.036Z,1007.30
2017-12-24T10:24:58.035Z,1007.30
2017-12-24T10:25:58.046Z,1007.28
2017-12-24T10:26:58.029Z,1007.31
2017-12-24T10:27:58.026Z,1007.25
2017-12-24T10:28:58.026Z,1007.26
2017-12-24T10:29:58.022Z,1007.28
2017-12-24T10:30:58.025Z,1007.27
2017-12-24T10:31:58.019Z,1007.24
2017-12-24T10:32:58.017Z,1007.30
2017-12-24T10:33:58.011Z,1007.27
2017-12-24T10:34:58.020Z,1007.22
2017-12-24T10:35:58.008Z,1007.23
2017-12-24T10:36:58.008Z,1007.17
2017-12-24T10:37:58.007Z,1007.18
2017-12-24T10:38:58.005Z,1007.18
2017-12-24T10:39:58.003Z,1007.13
2017-12-24T10:40:57.999Z,1007.09
2017-12-24T10:41:57.996Z,1007.13
2017-12-24T10:42:57.995Z,1007.06
2017-12-24T10:43:57.992Z,1007.05
2017-12-24T10:44:57.990Z,1007.03
2017-12-24T10:45:57.989Z,1007.01
2017-12-24T10:46:57.984Z,1007.03
2017-12-24T10:47:57.992Z,1007.04
2017-12-24T10:48:57.981Z,1006.97
2017-12-24T10:49:57.977Z,1007.00
2017-12-24T10:50:57.975Z,1007.01
2017-12-24T10:51:57.980Z,1006.94
2017-12-24T10:52:57.973Z,1006.94
2017-12-24T10:53:57.969Z,1006.93
2017-12-24T10:54:57.966Z,1006.92
2017-12-24T10:55:57.966Z,1006.86
2017-12-24T10:56:57.964Z,1006.89
2017-12-24T10:57:57.964Z,1006.90
2017-12-24T10:58:57.959Z,1006.89
2017-12-24T10:59:57.958Z,1006.87
2017-12-24T11:00:57.957Z,1006.87
2017-12-24T11:01:57.954Z,1006.80
2017-12-24T11:02:57.953Z,1006.78
2017-12-24T11:03:57.952Z,1006.79
2017-12-24T11:04:57.950Z,1006.84
2017-12-24T11:05:57.947Z,1006.81
2017-12-24T11:06:57.947Z,1006.71
2017-12-24T11:07:57.943Z,1006.83
2017-12-24T11:08:57.944Z,1006.88
2017-12-24T11:09:57.941Z,1006.83
2017-12-24T11:10:57.945Z,1006.78
2017-12-24T11:11:57.938Z,1006.78
2017-12-24T11:12:57.942Z,1006.85
2017-12-24T11:13:57.937Z,1006.85
2017-12-24T11:14:57.935Z,1006.83
2017-12-24T11:15:58.047Z,1006.75
2017-12-24T11:16:57.934Z,1006.75
2017-12-24T11:17:57.932Z,1006.78
2017-12-24T11:18:57.941Z,1006.72
2017-12-24T11:19:57.927Z,1006.71
2017-12-24T11:20:57.928Z,1006.69
2017-12-24T11:21:57.926Z,1006.65
2017-12-24T11:22:57.926Z,1006.62
2017-12-24T11:23:57.921Z,1006.64
2017-12-24T11:24:57.921Z,1006.64
2017-12-24T11:25:57.919Z,1006.60
2017-12-24T11:26:57.919Z,1006.61
2017-12-24T11:27:57.915Z,1006.62
2017-12-24T11:28:57.916Z,1006.56
2017-12-24T11:29:57.914Z,1006.51
2017-12-24T11:30:57.909Z,1006.52
2017-12-24T11:31:57.911Z,1006.53
2017-12-24T11:32:57.910Z,1006.50
2017-12-24T11:33:57.906Z,1006.49
2017-12-24T11:34:57.906Z,1006.53
2017-12-24T11:35:57.953Z,1006.50
2017-12-24T11:36:58.567Z,1006.49
2017-12-24T11:37:57.909Z,1006.44
2017-12-24T11:38:57.911Z,1006.43
2017-12-24T11:39:57.899Z,1006.39
2017-12-24T11:40:57.899Z,1006.35
2017-12-24T11:41:57.893Z,1006.39
2017-12-24T11:42:57.893Z,1006.42
2017-12-24T11:43:57.894Z,1006.35
2017-12-24T11:44:57.889Z,1006.30
2017-12-24T11:45:57.889Z,1006.31
2017-12-24T11:46:57.888Z,1006.27
2017-12-24T11:47:57.890Z,1006.30
2017-12-24T11:48:57.886Z,1006.26
2017-12-24T11:49:57.882Z,1006.23
2017-12-24T11:50:57.883Z,1006.23
2017-12-24T11:51:57.878Z,1006.16
2017-12-24T11:52:57.881Z,1006.19
2017-12-24T11:53:57.875Z,1006.17
2017-12-24T11:54:57.875Z,1006.18
2017-12-24T11:55:57.873Z,1006.17
2017-12-24T11:56:57.871Z,1006.21
2017-12-24T11:57:57.870Z,1006.15
2017-12-24T11:58:57.868Z,1006.16
2017-12-24T11:59:57.865Z,1006.09
2017-12-24T12:00:57.864Z,1006.16
2017-12-24T12:01:57.862Z,1006.09
2017-12-24T12:02:57.860Z,1006.08
2017-12-24T12:03:57.867Z,1006.13
2017-12-24T12:04:57.860Z,1006.11